Time;durP1;ratioP1;P1;durP2;ratioP2;P2;SDS_P1;SDS_P2;PMS_P1;PMS_P2;Temp;Humidity;BMP_temperature;BMP_pressure;BME280_temperature;BME280_humidity;BME280_pressure;Samples;Min_cycle;Max_cycle;Signal;HPM_P1;HPM_P2
2022/03/20 00:00:57;;;;;;;18.30;6.93;;;;;;;;;;5071800;28;20638;-67
2022/03/20 00:03:23;;;;;;;16.20;7.80;;;;;;;;;;5072122;28;20127;-67
2022/03/20 00:05:50;;;;;;;16.30;7.05;;;;;;;;;;5071993;28;20021;-67
2022/03/20 00:08:16;;;;;;;18.48;6.93;;;;;;;;;;5071526;28;20054;-67
2022/03/20 00:10:47;;;;;;;14.07;7.10;;;;;;;;;;5071933;28;20531;-67
2022/03/20 00:13:15;;;;;;;16.75;6.82;;;;;;;;;;5071415;28;20082;-67
2022/03/20 00:15:42;;;;;;;15.98;7.00;;;;;;;;;;5071130;28;20451;-67
2022/03/20 00:18:09;;;;;;;15.52;7.15;;;;;;;;;;5071335;28;20032;-67
2022/03/20 00:20:35;;;;;;;11.52;6.93;;;;;;;;;;5071844;28;20119;-67
2022/03/20 00:23:04;;;;;;;15.05;6.65;;;;;;;;;;5071435;28;20085;-67
2022/03/20 00:25:31;;;;;;;14.07;7.38;;;;;;;;;;5071532;28;20020;-66
2022/03/20 00:27:56;;;;;;;17.65;7.32;;;;;;;;;;5070941;28;20024;-66
2022/03/20 00:30:22;;;;;;;15.65;7.38;;;;;;;;;;5071059;28;20040;-68
2022/03/20 00:32:47;;;;;;;17.45;7.50;;;;;;;;;;5070999;28;20514;-68
2022/03/20 00:35:13;;;;;;;15.20;7.40;;;;;;;;;;5070035;28;20029;-68
2022/03/20 00:37:38;;;;;;;19.77;7.75;;;;;;;;;;5070832;28;20033;-68
2022/03/20 00:40:04;;;;;;;19.85;7.97;;;;;;;;;;5071038;28;20028;-66
2022/03/20 00:42:30;;;;;;;17.65;7.78;;;;;;;;;;5071118;28;20043;-70
2022/03/20 00:44:55;;;;;;;14.23;7.07;;;;;;;;;;5071123;28;20029;-66
2022/03/20 00:47:21;;;;;;;17.73;7.80;;;;;;;;;;5071026;28;20039;-67
2022/03/20 00:49:46;;;;;;;15.63;6.97;;;;;;;;;;5071024;28;20040;-66
2022/03/20 00:52:12;;;;;;;14.85;7.05;;;;;;;;;;5070559;28;20103;-66
2022/03/20 00:54:37;;;;;;;16.27;7.22;;;;;;;;;;5070660;28;20052;-67
2022/03/20 00:57:04;;;;;;;13.30;7.07;;;;;;;;;;5070398;28;20059;-67
2022/03/20 00:59:29;;;;;;;18.17;6.85;;;;;;;;;;5070468;28;20036;-67
2022/03/20 01:01:55;;;;;;;15.48;7.10;;;;;;;;;;5070658;28;20031;-67
2022/03/20 01:04:20;;;;;;;17.05;7.63;;;;;;;;;;5070509;28;20060;-67
2022/03/20 01:06:46;;;;;;;20.55;7.75;;;;;;;;;;5070579;28;20032;-67
2022/03/20 01:09:11;;;;;;;17.13;7.63;;;;;;;;;;5070307;28;20121;-67
2022/03/20 01:11:38;;;;;;;21.27;8.45;;;;;;;;;;5070539;28;20052;-67
2022/03/20 01:14:04;;;;;;;18.83;7.93;;;;;;;;;;5070071;28;20045;-68
2022/03/20 01:16:30;;;;;;;14.57;7.38;;;;;;;;;;5070728;28;20032;-67
2022/03/20 01:18:55;;;;;;;16.50;8.00;;;;;;;;;;5070005;28;20066;-67
2022/03/20 01:21:21;;;;;;;17.23;8.00;;;;;;;;;;5070535;28;20396;-65
2022/03/20 01:23:46;;;;;;;18.55;8.02;;;;;;;;;;5070432;28;20035;-68
2022/03/20 01:26:12;;;;;;;15.45;7.63;;;;;;;;;;5070219;28;20074;-66
2022/03/20 01:28:37;;;;;;;14.98;7.68;;;;;;;;;;5069890;28;20381;-68
2022/03/20 01:31:03;;;;;;;18.15;7.97;;;;;;;;;;5070484;28;20029;-67
2022/03/20 01:33:29;;;;;;;16.85;7.40;;;;;;;;;;5070102;28;20039;-67
2022/03/20 01:35:54;;;;;;;17.75;7.70;;;;;;;;;;5070586;28;20032;-66
2022/03/20 01:38:20;;;;;;;19.73;7.85;;;;;;;;;;5069923;28;20020;-68
2022/03/20 01:40:49;;;;;;;18.05;8.07;;;;;;;;;;5070323;28;20040;-66
2022/03/20 01:43:16;;;;;;;16.80;8.43;;;;;;;;;;5069927;28;20040;-66
2022/03/20 01:45:42;;;;;;;15.02;8.10;;;;;;;;;;5070041;28;20028;-68
2022/03/20 01:48:08;;;;;;;20.77;7.93;;;;;;;;;;5069850;28;20035;-67
2022/03/20 01:50:34;;;;;;;16.83;8.18;;;;;;;;;;5069870;28;20036;-68
2022/03/20 01:53:00;;;;;;;18.63;7.88;;;;;;;;;;5069712;28;20476;-68
2022/03/20 01:55:28;;;;;;;19.42;7.97;;;;;;;;;;5070084;28;20031;-67
2022/03/20 01:57:54;;;;;;;14.55;7.50;;;;;;;;;;5069662;28;20031;-67
2022/03/20 02:00:22;;;;;;;17.80;7.90;;;;;;;;;;5069872;28;20050;-67
2022/03/20 02:02:47;;;;;;;18.65;7.35;;;;;;;;;;5070323;28;20395;-69
2022/03/20 02:05:14;;;;;;;17.92;8.02;;;;;;;;;;5069643;28;20111;-65
2022/03/20 02:07:40;;;;;;;20.70;7.43;;;;;;;;;;5069806;28;20104;-66
2022/03/20 02:10:08;;;;;;;18.42;7.93;;;;;;;;;;5073173;28;20029;-71
2022/03/20 02:12:36;;;;;;;20.48;7.82;;;;;;;;;;5073998;28;20021;-67
2022/03/20 02:15:03;;;;;;;15.77;7.90;;;;;;;;;;5073708;28;20024;-67
2022/03/20 02:17:30;;;;;;;16.77;7.55;;;;;;;;;;5074368;28;20021;-67
2022/03/20 02:20:02;;;;;;;17.85;7.32;;;;;;;;;;5074279;28;20298;-66
2022/03/20 02:22:28;;;;;;;14.07;7.22;;;;;;;;;;5073861;28;20048;-66
2022/03/20 02:24:53;;;;;;;18.40;7.00;;;;;;;;;;5073755;28;20403;-68
2022/03/20 02:27:24;;;;;;;14.13;7.35;;;;;;;;;;5072045;28;20190;-69
2022/03/20 02:29:58;;;;;;;15.95;7.82;;;;;;;;;;5073358;28;20032;-67
2022/03/20 02:32:28;;;;;;;16.17;7.03;;;;;;;;;;5073795;28;20431;-70
2022/03/20 02:34:56;;;;;;;15.88;7.80;;;;;;;;;;5073841;28;20024;-70
2022/03/20 02:37:23;;;;;;;18.50;7.40;;;;;;;;;;5073508;28;20054;-66
2022/03/20 02:39:49;;;;;;;17.25;7.30;;;;;;;;;;5073705;28;20035;-66
2022/03/20 02:42:16;;;;;;;19.30;7.90;;;;;;;;;;5074060;28;20036;-67
2022/03/20 02:45:00;;;;;;;14.88;7.78;;;;;;;;;;5073359;28;20024;-67
2022/03/20 02:47:30;;;;;;;17.20;7.72;;;;;;;;;;5073128;28;20097;-67
2022/03/20 02:49:57;;;;;;;;;;;;;;;;;;5071877;28;20582;-66
2022/03/20 02:52:28;;;;;;;16.75;7.32;;;;;;;;;;5073483;28;19913;-66
2022/03/20 02:54:54;;;;;;;;;;;;;;;;;;5073400;28;20476;-66
2022/03/20 02:57:19;;;;;;;16.52;7.40;;;;;;;;;;5073242;28;19919;-67
2022/03/20 02:59:45;;;;;;;13.45;7.38;;;;;;;;;;5071485;28;20025;-67
2022/03/20 03:02:11;;;;;;;16.95;7.63;;;;;;;;;;5073027;28;20389;-67
2022/03/20 03:04:41;;;;;;;15.18;7.40;;;;;;;;;;5072710;28;20115;-66
2022/03/20 03:07:08;;;;;;;16.02;7.95;;;;;;;;;;5072998;28;20033;-67
2022/03/20 03:12:17;;;;;;;18.75;8.48;;;;;;;;;;5073307;28;20059;-67
2022/03/20 03:15:25;;;;;;;16.85;8.40;;;;;;;;;;5072747;28;20485;-67
2022/03/20 03:17:32;;;;;;;20.88;7.90;;;;;;;;;;5072153;28;20235;-67
2022/03/20 03:19:57;;;;;;;15.30;7.88;;;;;;;;;;5072795;28;20037;-68
2022/03/20 03:22:26;;;;;;;15.80;7.72;;;;;;;;;;5072724;28;20036;-67
2022/03/20 03:24:55;;;;;;;16.30;8.00;;;;;;;;;;5072825;28;20028;-67
2022/03/20 03:27:20;;;;;;;16.02;8.18;;;;;;;;;;5072371;28;20412;-66
2022/03/20 03:29:46;;;;;;;19.75;7.80;;;;;;;;;;5072056;28;20028;-66
2022/03/20 03:32:11;;;;;;;19.38;8.45;;;;;;;;;;5072624;28;20025;-67
2022/03/20 03:37:22;;;;;;;18.30;8.40;;;;;;;;;;5072595;28;20101;-68
2022/03/20 03:39:48;;;;;;;18.42;8.45;;;;;;;;;;5071971;28;20503;-67
2022/03/20 03:42:14;;;;;;;18.02;8.75;;;;;;;;;;5072616;28;20115;-67
2022/03/20 03:44:39;;;;;;;21.52;8.82;;;;;;;;;;5072034;28;20103;-67
2022/03/20 03:47:06;;;;;;;18.38;8.98;;;;;;;;;;5072036;28;20039;-68
2022/03/20 03:49:33;;;;;;;17.08;8.18;;;;;;;;;;5071874;28;20062;-67
2022/03/20 03:51:59;;;;;;;19.58;9.13;;;;;;;;;;5072317;28;20028;-67
2022/03/20 03:54:24;;;;;;;20.65;8.68;;;;;;;;;;5072535;28;20040;-68
2022/03/20 03:56:49;;;;;;;22.67;8.75;;;;;;;;;;5070810;28;20028;-69
2022/03/20 03:59:15;;;;;;;20.52;8.82;;;;;;;;;;5071813;28;20504;-67
2022/03/20 04:01:41;;;;;;;17.80;9.02;;;;;;;;;;5071805;28;20021;-67
2022/03/20 04:04:06;;;;;;;17.90;9.13;;;;;;;;;;5071787;28;20024;-68
2022/03/20 04:06:34;;;;;;;19.63;8.95;;;;;;;;;;5071743;28;20024;-67
2022/03/20 04:09:00;;;;;;;20.42;8.88;;;;;;;;;;5071666;28;20040;-67
2022/03/20 04:11:25;;;;;;;21.40;9.05;;;;;;;;;;5071558;28;20046;-69
2022/03/20 04:13:51;;;;;;;19.10;8.60;;;;;;;;;;5072184;28;20056;-67
2022/03/20 04:16:18;;;;;;;16.20;8.50;;;;;;;;;;5071347;28;20508;-69
2022/03/20 04:18:43;;;;;;;17.27;8.73;;;;;;;;;;5071189;28;20020;-69
2022/03/20 04:21:10;;;;;;;19.27;8.48;;;;;;;;;;5071260;28;20028;-68
2022/03/20 04:23:45;;;;;;;18.15;8.20;;;;;;;;;;5071388;28;20108;-67
2022/03/20 04:26:21;;;;;;;17.48;8.30;;;;;;;;;;5071299;28;20037;-67
2022/03/20 04:28:48;;;;;;;17.77;8.40;;;;;;;;;;5071094;28;20421;-68
2022/03/20 04:31:15;;;;;;;16.90;8.30;;;;;;;;;;5070471;28;20024;-68
2022/03/20 04:33:49;;;;;;;16.60;7.65;;;;;;;;;;5071575;28;20021;-68
2022/03/20 04:36:15;;;;;;;13.90;7.57;;;;;;;;;;5070930;28;20116;-68
2022/03/20 04:38:41;;;;;;;16.75;8.15;;;;;;;;;;5071173;28;20036;-68
2022/03/20 04:41:06;;;;;;;17.08;7.72;;;;;;;;;;5070902;28;20032;-68
2022/03/20 04:43:32;;;;;;;18.13;7.40;;;;;;;;;;5070884;28;20036;-66
2022/03/20 04:45:59;;;;;;;14.57;7.78;;;;;;;;;;5070630;28;20035;-72
2022/03/20 04:59:20;;;;;;;18.83;7.07;;;;;;;;;;5070904;28;20447;-67
2022/03/20 05:01:46;;;;;;;17.00;7.50;;;;;;;;;;5070292;28;20515;-67
2022/03/20 05:04:13;;;;;;;14.52;7.03;;;;;;;;;;5070752;28;20028;-68
2022/03/20 05:06:39;;;;;;;16.88;7.10;;;;;;;;;;5070491;28;20052;-66
2022/03/20 05:14:33;;;;;;;16.13;7.20;;;;;;;;;;5070806;28;20039;-68
2022/03/20 05:16:58;;;;;;;17.35;6.97;;;;;;;;;;5070363;28;20037;-68
2022/03/20 05:19:23;;;;;;;14.38;7.00;;;;;;;;;;5070252;28;20484;-67
2022/03/20 05:21:49;;;;;;;16.33;7.47;;;;;;;;;;5070067;28;20039;-67
2022/03/20 05:24:15;;;;;;;17.33;7.18;;;;;;;;;;5070512;28;20032;-67
2022/03/20 05:26:40;;;;;;;16.15;6.97;;;;;;;;;;5069987;28;20074;-67
2022/03/20 05:29:06;;;;;;;18.05;7.30;;;;;;;;;;5070123;28;20025;-67
2022/03/20 05:31:32;;;;;;;15.57;7.00;;;;;;;;;;5070477;28;20032;-67
2022/03/20 05:33:59;;;;;;;21.90;7.68;;;;;;;;;;5070337;28;20031;-66
2022/03/20 05:36:29;;;;;;;17.83;7.38;;;;;;;;;;5070061;28;20102;-68
2022/03/20 05:38:58;;;;;;;17.02;6.78;;;;;;;;;;5070261;28;20043;-67
2022/03/20 05:44:11;;;;;;;13.80;7.00;;;;;;;;;;5069444;28;20565;-67
2022/03/20 05:46:37;;;;;;;17.92;7.25;;;;;;;;;;5069899;28;20094;-69
2022/03/20 05:49:03;;;;;;;19.35;7.57;;;;;;;;;;5069984;28;20028;-66
2022/03/20 05:51:30;;;;;;;15.05;7.78;;;;;;;;;;5069945;28;20033;-66
2022/03/20 05:53:56;;;;;;;14.52;7.15;;;;;;;;;;5070503;28;20178;-65
2022/03/20 05:59:06;;;;;;;16.95;7.35;;;;;;;;;;5069792;28;20090;-68
2022/03/20 06:01:32;;;;;;;17.33;7.22;;;;;;;;;;5069438;28;20048;-67
2022/03/20 06:03:57;;;;;;;17.83;7.70;;;;;;;;;;5069909;28;20013;-67
2022/03/20 06:06:23;;;;;;;22.30;7.68;;;;;;;;;;5069894;28;20032;-69
2022/03/20 06:08:49;;;;;;;14.93;6.85;;;;;;;;;;5069775;28;20395;-68
2022/03/20 06:11:15;;;;;;;16.65;7.18;;;;;;;;;;5069758;28;20111;-66
2022/03/20 06:13:40;;;;;;;17.38;7.18;;;;;;;;;;5070052;28;20086;-68
2022/03/20 06:16:08;;;;;;;16.52;7.10;;;;;;;;;;5069527;28;20283;-68
2022/03/20 06:18:33;;;;;;;16.45;6.93;;;;;;;;;;5069435;28;20078;-68
2022/03/20 06:20:59;;;;;;;15.65;6.93;;;;;;;;;;5069842;28;20028;-66
2022/03/20 06:23:25;;;;;;;14.45;6.82;;;;;;;;;;5069837;28;20490;-67
2022/03/20 06:25:53;;;;;;;17.52;7.07;;;;;;;;;;5069602;28;20055;-67
2022/03/20 06:28:19;;;;;;;18.30;6.93;;;;;;;;;;5069600;28;20033;-68
2022/03/20 06:30:45;;;;;;;12.50;6.78;;;;;;;;;;5069270;28;20032;-67
2022/03/20 06:33:11;;;;;;;16.17;7.45;;;;;;;;;;5069275;28;20037;-68
2022/03/20 06:35:37;;;;;;;15.73;7.70;;;;;;;;;;5069789;28;20025;-68
2022/03/20 06:38:02;;;;;;;17.75;7.32;;;;;;;;;;5069314;28;20036;-68
2022/03/20 06:40:28;;;;;;;15.30;7.20;;;;;;;;;;5069412;28;20035;-69
2022/03/20 06:42:54;;;;;;;19.35;7.20;;;;;;;;;;5069315;28;20060;-69
2022/03/20 06:45:20;;;;;;;17.10;6.78;;;;;;;;;;5069560;28;20021;-68
2022/03/20 06:47:45;;;;;;;15.32;6.90;;;;;;;;;;5069422;28;20175;-71
2022/03/20 06:50:12;;;;;;;14.00;6.88;;;;;;;;;;5069492;28;20482;-67
2022/03/20 06:52:41;;;;;;;17.58;7.63;;;;;;;;;;5069419;28;20090;-68
2022/03/20 06:55:12;;;;;;;13.30;7.03;;;;;;;;;;5071183;28;20400;-68
2022/03/20 06:57:44;;;;;;;15.63;7.18;;;;;;;;;;5072758;28;20032;-67
2022/03/20 07:00:11;;;;;;;12.40;6.82;;;;;;;;;;5072739;28;20024;-68
2022/03/20 07:02:36;;;;;;;15.10;6.78;;;;;;;;;;5072899;28;20078;-68
2022/03/20 07:05:02;;;;;;;16.40;6.68;;;;;;;;;;5072963;28;20033;-68
2022/03/20 07:07:28;;;;;;;14.55;6.72;;;;;;;;;;5072930;28;20033;-69
2022/03/20 07:09:53;;;;;;;16.90;6.82;;;;;;;;;;5072679;28;20041;-67
2022/03/20 07:12:20;;;;;;;12.93;6.43;;;;;;;;;;5072749;28;20024;-67
2022/03/20 07:14:46;;;;;;;13.30;6.40;;;;;;;;;;5073059;28;20492;-67
2022/03/20 07:17:16;;;;;;;13.30;6.50;;;;;;;;;;5072396;28;20057;-67
2022/03/20 07:19:43;;;;;;;14.57;6.80;;;;;;;;;;5072853;28;20503;-67
2022/03/20 07:22:11;;;;;;;12.10;6.78;;;;;;;;;;5072596;28;20524;-67
2022/03/20 07:24:39;;;;;;;14.00;6.50;;;;;;;;;;5072878;28;20033;-67
2022/03/20 07:29:50;;;;;;;11.82;6.25;;;;;;;;;;5072362;28;20589;-67
2022/03/20 07:32:17;;;;;;;13.85;5.97;;;;;;;;;;5072181;28;20025;-68
2022/03/20 07:34:46;;;;;;;14.88;5.70;;;;;;;;;;5072469;28;20035;-68
2022/03/20 07:37:16;;;;;;;10.90;5.72;;;;;;;;;;5072330;28;20089;-68
2022/03/20 07:39:46;;;;;;;11.93;5.85;;;;;;;;;;5072236;28;20020;-68
2022/03/20 07:42:14;;;;;;;12.35;5.97;;;;;;;;;;5072246;28;20029;-67
2022/03/20 07:44:40;;;;;;;12.18;5.43;;;;;;;;;;5072583;28;20545;-68
2022/03/20 07:47:08;;;;;;;11.63;5.63;;;;;;;;;;5072153;28;20028;-68
2022/03/20 07:49:37;;;;;;;13.73;5.82;;;;;;;;;;5072154;28;20103;-70
2022/03/20 07:52:06;;;;;;;10.48;5.22;;;;;;;;;;5071909;28;20104;-67
2022/03/20 07:54:34;;;;;;;11.50;5.53;;;;;;;;;;5072119;28;20104;-71
2022/03/20 07:57:00;;;;;;;11.02;5.40;;;;;;;;;;5071864;28;20066;-70
2022/03/20 07:59:25;;;;;;;11.98;5.32;;;;;;;;;;5071926;28;20028;-71
2022/03/20 08:01:51;;;;;;;10.52;5.13;;;;;;;;;;5071733;28;20478;-70
2022/03/20 08:04:16;;;;;;;10.55;5.07;;;;;;;;;;5071775;28;20117;-71
2022/03/20 08:06:42;;;;;;;11.35;4.88;;;;;;;;;;5071160;28;20033;-66
2022/03/20 08:09:08;;;;;;;8.73;4.82;;;;;;;;;;5071499;28;20116;-66
2022/03/20 08:11:33;;;;;;;11.85;5.47;;;;;;;;;;5071619;28;20036;-69
2022/03/20 08:13:59;;;;;;;9.88;4.90;;;;;;;;;;5070063;28;20025;-71
2022/03/20 08:16:26;;;;;;;10.00;5.03;;;;;;;;;;5071518;28;20021;-67
2022/03/20 08:18:56;;;;;;;9.32;4.70;;;;;;;;;;5071212;28;20099;-65
2022/03/20 08:21:22;;;;;;;11.90;4.93;;;;;;;;;;5071488;28;20017;-68
2022/03/20 08:23:48;;;;;;;15.50;5.22;;;;;;;;;;5071493;28;20507;-70
2022/03/20 08:26:13;;;;;;;10.18;4.63;;;;;;;;;;5071491;28;20040;-68
2022/03/20 08:28:41;;;;;;;10.65;4.65;;;;;;;;;;5071283;28;20056;-68
2022/03/20 08:31:08;;;;;;;16.50;4.80;;;;;;;;;;5071326;28;20020;-68
2022/03/20 08:33:33;;;;;;;10.32;4.57;;;;;;;;;;5070975;28;20036;-69
2022/03/20 08:36:00;;;;;;;10.68;4.15;;;;;;;;;;5071180;28;20024;-67
2022/03/20 08:38:26;;;;;;;13.10;4.60;;;;;;;;;;5071119;28;20553;-68
2022/03/20 08:40:51;;;;;;;11.68;4.50;;;;;;;;;;5071199;28;20075;-67
2022/03/20 08:43:17;;;;;;;9.77;4.10;;;;;;;;;;5071014;28;20032;-70
2022/03/20 08:45:44;;;;;;;13.20;4.32;;;;;;;;;;5071275;28;20021;-68
2022/03/20 08:48:10;;;;;;;15.43;4.35;;;;;;;;;;5070821;28;20020;-68
2022/03/20 08:50:36;;;;;;;10.27;4.50;;;;;;;;;;5070944;28;20035;-69
2022/03/20 08:53:02;;;;;;;10.95;4.47;;;;;;;;;;5070658;28;20047;-66
2022/03/20 08:55:27;;;;;;;12.52;4.47;;;;;;;;;;5070856;28;20024;-67
2022/03/20 08:57:54;;;;;;;12.80;4.25;;;;;;;;;;5070938;28;20107;-68
2022/03/20 09:00:22;;;;;;;10.82;4.60;;;;;;;;;;5070488;28;20028;-67
2022/03/20 09:02:49;;;;;;;11.18;3.83;;;;;;;;;;5070861;28;20100;-67
2022/03/20 09:05:16;;;;;;;8.98;4.28;;;;;;;;;;5070718;28;20036;-67
2022/03/20 09:07:43;;;;;;;8.48;4.18;;;;;;;;;;5070732;28;20025;-68
2022/03/20 09:10:10;;;;;;;13.38;4.55;;;;;;;;;;5070127;28;20024;-67
2022/03/20 09:12:40;;;;;;;12.65;4.40;;;;;;;;;;5070517;28;20035;-70
2022/03/20 09:15:12;;;;;;;11.35;4.75;;;;;;;;;;5070170;28;20024;-69
2022/03/20 09:20:28;;;;;;;12.00;4.28;;;;;;;;;;5070476;28;20044;-67
2022/03/20 09:22:54;;;;;;;12.25;4.85;;;;;;;;;;5070526;28;20036;-67
2022/03/20 09:25:20;;;;;;;9.35;4.10;;;;;;;;;;5070295;28;20032;-68
2022/03/20 09:27:48;;;;;;;10.30;4.40;;;;;;;;;;5069994;28;20082;-67
2022/03/20 09:30:14;;;;;;;11.35;4.68;;;;;;;;;;5069888;28;20045;-66
2022/03/20 09:32:40;;;;;;;14.00;4.75;;;;;;;;;;5070302;28;20020;-71
2022/03/20 09:35:06;;;;;;;10.75;4.53;;;;;;;;;;5070057;28;20327;-67
2022/03/20 09:37:31;;;;;;;12.70;4.50;;;;;;;;;;5070484;28;20540;-67
2022/03/20 09:39:57;;;;;;;9.85;4.45;;;;;;;;;;5070496;28;20024;-67
2022/03/20 09:42:22;;;;;;;13.90;5.13;;;;;;;;;;5070207;28;20593;-67
2022/03/20 09:44:50;;;;;;;9.10;4.45;;;;;;;;;;5069961;28;20024;-66
2022/03/20 09:47:19;;;;;;;13.77;4.65;;;;;;;;;;5070252;28;20048;-67
2022/03/20 09:49:47;;;;;;;11.10;4.13;;;;;;;;;;5069809;28;20033;-67
2022/03/20 09:52:14;;;;;;;11.80;4.43;;;;;;;;;;5069674;28;20123;-69
2022/03/20 09:54:40;;;;;;;11.73;4.82;;;;;;;;;;5069850;28;20027;-67
2022/03/20 09:57:07;;;;;;;8.32;4.32;;;;;;;;;;5068584;28;20468;-67
2022/03/20 09:59:34;;;;;;;11.23;4.38;;;;;;;;;;5069889;28;20112;-67
2022/03/20 10:02:07;;;;;;;14.05;4.70;;;;;;;;;;5069945;28;20021;-68
2022/03/20 10:04:51;;;;;;;13.07;4.50;;;;;;;;;;5069854;28;20024;-68
2022/03/20 10:07:21;;;;;;;11.13;4.65;;;;;;;;;;5069857;28;20032;-67
2022/03/20 10:10:05;;;;;;;10.00;4.40;;;;;;;;;;5069667;28;20048;-68
2022/03/20 10:12:31;;;;;;;9.00;4.10;;;;;;;;;;5069698;28;20267;-68
2022/03/20 10:14:57;;;;;;;11.88;4.60;;;;;;;;;;5069457;28;20484;-67
2022/03/20 10:17:22;;;;;;;11.10;4.05;;;;;;;;;;5070011;28;20027;-67
2022/03/20 10:19:48;;;;;;;9.95;4.40;;;;;;;;;;5069486;28;20085;-66
2022/03/20 10:22:15;;;;;;;8.68;4.35;;;;;;;;;;5069889;28;20070;-69
2022/03/20 10:24:47;;;;;;;12.43;4.20;;;;;;;;;;5069877;28;20024;-69
2022/03/20 10:27:14;;;;;;;10.57;4.43;;;;;;;;;;5069429;28;20075;-67
2022/03/20 10:29:54;;;;;;;11.52;4.70;;;;;;;;;;5070541;28;20036;-68
2022/03/20 10:32:20;;;;;;;13.13;6.10;;;;;;;;;;5073974;28;20025;-67
2022/03/20 10:34:53;;;;;;;10.73;4.75;;;;;;;;;;5073452;28;20059;-68
2022/03/20 10:37:22;;;;;;;13.70;4.68;;;;;;;;;;5073977;28;20031;-67
2022/03/20 10:39:47;;;;;;;12.05;4.70;;;;;;;;;;5073575;28;20093;-67
2022/03/20 10:42:14;;;;;;;15.25;4.40;;;;;;;;;;5073317;28;20480;-71
2022/03/20 10:44:40;;;;;;;13.57;5.53;;;;;;;;;;5073199;28;20407;-67
2022/03/20 10:47:16;;;;;;;8.60;4.63;;;;;;;;;;5073633;28;20028;-68
2022/03/20 10:50:01;;;;;;;15.77;6.28;;;;;;;;;;5073073;28;20036;-68
2022/03/20 10:52:26;;;;;;;9.60;4.18;;;;;;;;;;5073263;28;20127;-66
2022/03/20 10:54:53;;;;;;;10.15;4.63;;;;;;;;;;5073102;28;20567;-66
2022/03/20 10:57:19;;;;;;;12.88;5.13;;;;;;;;;;5073560;28;20036;-67
2022/03/20 11:00:00;;;;;;;15.57;4.68;;;;;;;;;;5072964;28;20561;-71
2022/03/20 11:02:25;;;;;;;11.68;4.20;;;;;;;;;;5072818;28;20024;-68
2022/03/20 11:04:52;;;;;;;8.15;4.32;;;;;;;;;;5072699;28;20032;-72
2022/03/20 11:07:18;;;;;;;13.13;4.53;;;;;;;;;;5072834;28;20035;-69
2022/03/20 11:09:47;;;;;;;8.85;3.90;;;;;;;;;;5072540;28;20073;-67
2022/03/20 11:12:34;;;;;;;11.30;4.88;;;;;;;;;;5072773;28;20085;-68
2022/03/20 11:15:06;;;;;;;8.77;3.80;;;;;;;;;;5072564;28;20019;-68
2022/03/20 11:17:50;;;;;;;11.25;5.00;;;;;;;;;;5072794;28;20020;-68
2022/03/20 11:20:17;;;;;;;13.85;5.07;;;;;;;;;;5072349;28;20021;-67
2022/03/20 11:22:51;;;;;;;13.10;4.55;;;;;;;;;;5072723;28;20503;-67
2022/03/20 11:25:25;;;;;;;10.85;4.55;;;;;;;;;;5072296;28;20016;-69
2022/03/20 11:27:59;;;;;;;11.25;4.60;;;;;;;;;;5072501;28;20037;-72
2022/03/20 11:30:30;;;;;;;18.67;4.85;;;;;;;;;;5072565;28;20028;-67
2022/03/20 11:32:58;;;;;;;12.85;5.07;;;;;;;;;;5072267;28;20027;-67
2022/03/20 11:35:27;;;;;;;9.30;4.72;;;;;;;;;;5072472;28;20021;-70
2022/03/20 11:37:55;;;;;;;14.00;6.28;;;;;;;;;;5072444;28;20476;-67
2022/03/20 11:40:22;;;;;;;12.20;5.07;;;;;;;;;;5071537;28;20031;-67
2022/03/20 11:43:11;;;;;;;9.05;4.50;;;;;;;;;;5071420;28;20028;-68
2022/03/20 11:45:37;;;;;;;10.18;4.47;;;;;;;;;;5067413;28;20047;-69
2022/03/20 11:48:13;;;;;;;11.35;4.78;;;;;;;;;;5072373;28;20111;-69
2022/03/20 11:50:49;;;;;;;11.05;4.38;;;;;;;;;;5072011;28;20030;-68
2022/03/20 11:53:29;;;;;;;12.65;5.30;;;;;;;;;;5072137;28;20468;-71
2022/03/20 11:55:54;;;;;;;13.45;4.70;;;;;;;;;;5071983;28;20480;-67
2022/03/20 11:58:24;;;;;;;9.75;4.50;;;;;;;;;;5072197;28;20027;-67
2022/03/20 12:01:03;;;;;;;9.07;4.30;;;;;;;;;;5071647;28;20059;-67
2022/03/20 12:04:03;;;;;;;11.02;4.82;;;;;;;;;;5071867;28;20040;-67
2022/03/20 12:07:06;;;;;;;12.65;5.00;;;;;;;;;;5070288;28;20505;-67
2022/03/20 12:09:35;;;;;;;9.70;4.53;;;;;;;;;;5071777;28;20033;-72
2022/03/20 12:12:23;;;;;;;11.23;4.90;;;;;;;;;;5071553;28;20373;-70
2022/03/20 12:14:53;;;;;;;12.88;4.55;;;;;;;;;;5059914;28;20191;-66
2022/03/20 12:17:20;;;;;;;13.68;4.70;;;;;;;;;;5071499;28;20084;-68
2022/03/20 12:19:53;;;;;;;14.05;4.88;;;;;;;;;;5071892;28;20115;-69
2022/03/20 12:22:19;;;;;;;10.93;5.25;;;;;;;;;;5071140;28;20055;-68
2022/03/20 12:24:49;;;;;;;10.18;4.75;;;;;;;;;;5071627;28;20021;-67
2022/03/20 12:27:23;;;;;;;;;;;;;;;;;;5071509;28;20120;-67
2022/03/20 12:29:49;;;;;;;10.25;4.70;;;;;;;;;;5071731;28;20007;-70
2022/03/20 12:32:15;;;;;;;12.82;5.20;;;;;;;;;;5071496;28;20099;-67
2022/03/20 12:35:04;;;;;;;13.13;5.20;;;;;;;;;;5071470;28;20028;-67
2022/03/20 12:37:29;;;;;;;11.25;5.05;;;;;;;;;;5060415;28;20036;-68
2022/03/20 12:40:25;;;;;;;9.38;4.90;;;;;;;;;;5071425;28;20047;-66
2022/03/20 12:43:01;;;;;;;16.42;6.05;;;;;;;;;;5070509;28;20074;-67
2022/03/20 12:45:28;;;;;;;12.25;5.40;;;;;;;;;;5070800;28;20084;-67
2022/03/20 12:48:01;;;;;;;12.32;5.88;;;;;;;;;;5071115;28;20050;-67
2022/03/20 12:50:32;;;;;;;13.25;5.75;;;;;;;;;;5071190;28;20144;-67
2022/03/20 12:53:08;;;;;;;17.13;5.78;;;;;;;;;;5070529;28;20020;-66
2022/03/20 12:55:37;;;;;;;10.90;5.20;;;;;;;;;;5070985;28;20020;-67
2022/03/20 12:58:03;;;;;;;14.20;5.65;;;;;;;;;;5071322;28;20100;-66
2022/03/20 13:00:35;;;;;;;10.85;5.50;;;;;;;;;;5070667;28;20070;-66
2022/03/20 13:03:11;;;;;;;13.63;5.22;;;;;;;;;;5070501;28;20090;-66
2022/03/20 13:05:48;;;;;;;12.35;5.82;;;;;;;;;;5070563;28;20020;-67
2022/03/20 13:08:24;;;;;;;12.75;6.03;;;;;;;;;;5070777;28;20112;-67
2022/03/20 13:11:00;;;;;;;14.18;5.80;;;;;;;;;;5070781;28;20078;-68
2022/03/20 13:13:34;;;;;;;10.10;5.05;;;;;;;;;;5070640;28;20025;-66
2022/03/20 13:16:01;;;;;;;11.88;5.53;;;;;;;;;;5070575;28;20029;-68
2022/03/20 13:18:31;;;;;;;13.32;5.25;;;;;;;;;;5070390;28;20032;-67
2022/03/20 13:20:57;;;;;;;9.73;5.30;;;;;;;;;;5070774;28;20052;-67
2022/03/20 13:23:27;;;;;;;12.77;5.53;;;;;;;;;;5070252;28;20028;-65
2022/03/20 13:25:58;;;;;;;12.50;6.33;;;;;;;;;;5070091;28;20496;-67
2022/03/20 13:28:31;;;;;;;11.48;5.72;;;;;;;;;;5070612;28;20549;-71
2022/03/20 13:31:02;;;;;;;13.25;5.80;;;;;;;;;;5069913;28;20032;-68
2022/03/20 13:33:35;;;;;;;11.82;5.82;;;;;;;;;;5070200;28;20045;-68
2022/03/20 13:36:08;;;;;;;12.40;5.82;;;;;;;;;;5070064;28;20081;-67
2022/03/20 13:38:45;;;;;;;12.25;6.00;;;;;;;;;;5070273;28;20048;-67
2022/03/20 13:41:17;;;;;;;12.45;5.93;;;;;;;;;;5069732;28;20048;-69
2022/03/20 13:43:44;;;;;;;13.70;6.05;;;;;;;;;;5069773;28;20024;-67
2022/03/20 13:46:25;;;;;;;16.83;6.30;;;;;;;;;;5069667;28;20056;-66
2022/03/20 13:48:52;;;;;;;13.20;6.03;;;;;;;;;;5070179;28;20044;-69
2022/03/20 13:51:20;;;;;;;12.20;6.57;;;;;;;;;;5069821;28;20036;-67
2022/03/20 13:53:45;;;;;;;13.45;5.75;;;;;;;;;;5069907;28;20033;-67
2022/03/20 13:56:27;;;;;;;13.85;6.53;;;;;;;;;;5069770;28;20032;-67
2022/03/20 13:59:04;;;;;;;9.50;5.30;;;;;;;;;;5069881;28;20020;-67
2022/03/20 14:01:30;;;;;;;11.98;5.43;;;;;;;;;;5069520;28;20031;-67
2022/03/20 14:04:08;;;;;;;11.60;5.53;;;;;;;;;;5068954;28;20029;-66
2022/03/20 14:06:39;;;;;;;11.00;5.85;;;;;;;;;;5069850;28;20504;-66
2022/03/20 14:09:05;;;;;;;15.02;6.10;;;;;;;;;;5069837;28;20400;-67
2022/03/20 14:11:36;;;;;;;13.02;6.10;;;;;;;;;;5070006;28;20460;-67
2022/03/20 14:14:05;;;;;;;10.77;6.10;;;;;;;;;;5070140;28;20025;-70
2022/03/20 14:16:32;;;;;;;11.60;5.65;;;;;;;;;;5069555;28;20582;-67
2022/03/20 14:19:06;;;;;;;14.52;5.40;;;;;;;;;;5070419;28;20167;-66
2022/03/20 14:21:32;;;;;;;12.63;5.65;;;;;;;;;;5070512;28;20024;-71
2022/03/20 14:24:08;;;;;;;12.90;5.45;;;;;;;;;;5069800;28;20089;-68
2022/03/20 14:26:36;;;;;;;11.30;5.30;;;;;;;;;;5070053;28;20298;-70
2022/03/20 14:29:06;;;;;;;11.90;5.35;;;;;;;;;;5069636;28;20066;-67
2022/03/20 14:39:54;;;;;;;9.32;5.20;;;;;;;;;;5069836;28;20557;-68
2022/03/20 14:42:25;;;;;;;10.63;5.20;;;;;;;;;;5069263;28;20032;-68
2022/03/20 14:44:51;;;;;;;10.50;5.63;;;;;;;;;;5068308;28;20051;-68
2022/03/20 14:47:18;;;;;;;10.88;5.68;;;;;;;;;;5069209;28;20499;-66
2022/03/20 14:49:45;;;;;;;9.95;5.20;;;;;;;;;;5069540;28;20052;-66
2022/03/20 14:52:12;;;;;;;12.73;5.30;;;;;;;;;;5069051;28;20024;-68
2022/03/20 14:54:38;;;;;;;13.27;5.55;;;;;;;;;;5069234;28;20024;-66
2022/03/20 14:57:05;;;;;;;11.40;5.50;;;;;;;;;;5069096;28;20021;-66
2022/03/20 14:59:30;;;;;;;11.15;5.82;;;;;;;;;;5069557;28;20086;-67
2022/03/20 15:01:56;;;;;;;11.18;5.30;;;;;;;;;;5068888;28;20028;-67
2022/03/20 15:04:21;;;;;;;15.15;5.30;;;;;;;;;;5069386;28;20028;-68
2022/03/20 15:06:50;;;;;;;12.77;5.18;;;;;;;;;;5069310;28;20081;-66
2022/03/20 15:12:00;;;;;;;19.08;5.75;;;;;;;;;;5069225;28;20107;-67
2022/03/20 15:14:27;;;;;;;12.23;6.07;;;;;;;;;;5069000;28;20460;-68
2022/03/20 15:16:53;;;;;;;10.98;6.03;;;;;;;;;;5071733;28;20239;-67
2022/03/20 15:19:18;;;;;;;12.63;5.75;;;;;;;;;;5072594;28;20037;-68
2022/03/20 15:21:44;;;;;;;14.13;6.55;;;;;;;;;;5072675;28;20017;-67